sensor_id;sensor_type;location;lat;lon;timestamp;P1;durP1;ratioP1;P2;durP2;ratioP2
42194;SDS011;27863;49.440;11.102;2023-06-10T00:00:12;5.88;;;5.45;;
42194;SDS011;27863;49.440;11.102;2023-06-10T00:03:17;6.47;;;5.97;;
42194;SDS011;27863;49.440;11.102;2023-06-10T00:06:17;6.03;;;5.63;;
42194;SDS011;27863;49.440;11.102;2023-06-10T00:09:18;5.63;;;5.22;;
42194;SDS011;27863;49.440;11.102;2023-06-10T00:12:22;13.18;;;6.50;;
42194;SDS011;27863;49.440;11.102;2023-06-10T00:15:23;6.47;;;5.97;;
42194;SDS011;27863;49.440;11.102;2023-06-10T00:18:23;6.25;;;5.85;;
42194;SDS011;27863;49.440;11.102;2023-06-10T00:21:27;6.65;;;6.05;;
42194;SDS011;27863;49.440;11.102;2023-06-10T00:24:28;6.60;;;6.10;;
42194;SDS011;27863;49.440;11.102;2023-06-10T00:27:28;5.88;;;5.47;;
42194;SDS011;27863;49.440;11.102;2023-06-10T00:30:31;5.95;;;5.45;;
42194;SDS011;27863;49.440;11.102;2023-06-10T00:33:31;6.50;;;5.90;;
42194;SDS011;27863;49.440;11.102;2023-06-10T00:36:32;6.57;;;6.00;;
42194;SDS011;27863;49.440;11.102;2023-06-10T00:39:34;6.30;;;5.50;;
42194;SDS011;27863;49.440;11.102;2023-06-10T00:42:34;5.97;;;5.57;;
42194;SDS011;27863;49.440;11.102;2023-06-10T00:45:35;6.22;;;5.72;;
42194;SDS011;27863;49.440;11.102;2023-06-10T00:48:36;6.38;;;5.97;;
42194;SDS011;27863;49.440;11.102;2023-06-10T00:51:37;6.68;;;6.10;;
42194;SDS011;27863;49.440;11.102;2023-06-10T00:54:38;6.20;;;5.70;;
42194;SDS011;27863;49.440;11.102;2023-06-10T00:57:39;6.07;;;5.63;;
42194;SDS011;27863;49.440;11.102;2023-06-10T01:00:39;6.25;;;5.85;;
42194;SDS011;27863;49.440;11.102;2023-06-10T01:03:40;6.28;;;5.85;;
42194;SDS011;27863;49.440;11.102;2023-06-10T01:06:44;6.90;;;6.30;;
42194;SDS011;27863;49.440;11.102;2023-06-10T01:13:27;6.70;;;6.10;;
42194;SDS011;27863;49.440;11.102;2023-06-10T01:16:31;6.28;;;5.88;;
42194;SDS011;27863;49.440;11.102;2023-06-10T01:19:32;7.13;;;6.53;;
42194;SDS011;27863;49.440;11.102;2023-06-10T01:22:33;6.63;;;6.13;;
42194;SDS011;27863;49.440;11.102;2023-06-10T01:25:40;6.88;;;5.93;;
42194;SDS011;27863;49.440;11.102;2023-06-10T01:29:07;5.93;;;5.53;;
42194;SDS011;27863;49.440;11.102;2023-06-10T01:35:14;6.43;;;5.93;;
42194;SDS011;27863;49.440;11.102;2023-06-10T01:38:16;6.70;;;6.20;;
42194;SDS011;27863;49.440;11.102;2023-06-10T01:41:17;6.50;;;6.00;;
42194;SDS011;27863;49.440;11.102;2023-06-10T01:44:19;6.82;;;6.25;;
42194;SDS011;27863;49.440;11.102;2023-06-10T01:47:20;7.47;;;6.95;;
42194;SDS011;27863;49.440;11.102;2023-06-10T01:50:21;6.18;;;5.68;;
42194;SDS011;27863;49.440;11.102;2023-06-10T01:53:21;6.43;;;5.88;;
42194;SDS011;27863;49.440;11.102;2023-06-10T01:56:22;7.07;;;6.47;;
42194;SDS011;27863;49.440;11.102;2023-06-10T01:59:23;6.00;;;5.60;;
42194;SDS011;27863;49.440;11.102;2023-06-10T02:02:23;6.75;;;6.15;;
42194;SDS011;27863;49.440;11.102;2023-06-10T02:05:25;6.55;;;6.05;;
42194;SDS011;27863;49.440;11.102;2023-06-10T02:08:25;6.65;;;6.00;;
42194;SDS011;27863;49.440;11.102;2023-06-10T02:11:27;6.35;;;5.85;;
42194;SDS011;27863;49.440;11.102;2023-06-10T02:14:28;6.15;;;5.65;;
42194;SDS011;27863;49.440;11.102;2023-06-10T02:17:29;6.35;;;5.85;;
42194;SDS011;27863;49.440;11.102;2023-06-10T02:20:30;6.53;;;6.03;;
42194;SDS011;27863;49.440;11.102;2023-06-10T02:23:30;6.55;;;6.05;;
42194;SDS011;27863;49.440;11.102;2023-06-10T02:26:31;6.22;;;5.63;;
42194;SDS011;27863;49.440;11.102;2023-06-10T02:29:34;6.85;;;6.35;;
42194;SDS011;27863;49.440;11.102;2023-06-10T02:32:36;6.18;;;5.78;;
42194;SDS011;27863;49.440;11.102;2023-06-10T02:35:40;6.32;;;5.65;;
42194;SDS011;27863;49.440;11.102;2023-06-10T02:38:41;6.05;;;5.65;;
42194;SDS011;27863;49.440;11.102;2023-06-10T02:41:42;5.70;;;5.30;;
42194;SDS011;27863;49.440;11.102;2023-06-10T02:44:43;5.68;;;5.28;;
42194;SDS011;27863;49.440;11.102;2023-06-10T02:47:47;6.88;;;6.38;;
42194;SDS011;27863;49.440;11.102;2023-06-10T02:50:48;7.57;;;5.97;;
42194;SDS011;27863;49.440;11.102;2023-06-10T02:54:09;6.88;;;6.15;;
42194;SDS011;27863;49.440;11.102;2023-06-10T02:57:09;6.68;;;6.28;;
42194;SDS011;27863;49.440;11.102;2023-06-10T03:00:11;7.22;;;6.53;;
42194;SDS011;27863;49.440;11.102;2023-06-10T03:03:16;6.35;;;5.85;;
42194;SDS011;27863;49.440;11.102;2023-06-10T03:06:25;7.35;;;6.75;;
42194;SDS011;27863;49.440;11.102;2023-06-10T03:09:30;6.88;;;6.38;;
42194;SDS011;27863;49.440;11.102;2023-06-10T03:12:33;6.53;;;6.00;;
42194;SDS011;27863;49.440;11.102;2023-06-10T03:15:33;7.28;;;6.57;;
42194;SDS011;27863;49.440;11.102;2023-06-10T03:18:39;6.63;;;6.13;;
42194;SDS011;27863;49.440;11.102;2023-06-10T03:21:43;6.28;;;5.78;;
42194;SDS011;27863;49.440;11.102;2023-06-10T03:24:44;5.45;;;5.05;;
42194;SDS011;27863;49.440;11.102;2023-06-10T03:27:48;6.65;;;6.15;;
42194;SDS011;27863;49.440;11.102;2023-06-10T03:30:52;6.78;;;6.28;;
42194;SDS011;27863;49.440;11.102;2023-06-10T03:33:54;8.43;;;7.82;;
42194;SDS011;27863;49.440;11.102;2023-06-10T03:36:54;6.82;;;6.32;;
42194;SDS011;27863;49.440;11.102;2023-06-10T03:39:55;6.90;;;6.40;;
42194;SDS011;27863;49.440;11.102;2023-06-10T03:42:55;6.72;;;6.22;;
42194;SDS011;27863;49.440;11.102;2023-06-10T03:45:56;5.78;;;5.38;;
42194;SDS011;27863;49.440;11.102;2023-06-10T03:48:57;6.07;;;5.57;;
42194;SDS011;27863;49.440;11.102;2023-06-10T03:52:01;6.88;;;6.18;;
42194;SDS011;27863;49.440;11.102;2023-06-10T03:55:01;7.18;;;6.57;;
42194;SDS011;27863;49.440;11.102;2023-06-10T03:58:02;6.25;;;5.75;;
42194;SDS011;27863;49.440;11.102;2023-06-10T04:01:03;7.35;;;6.75;;
42194;SDS011;27863;49.440;11.102;2023-06-10T04:04:08;6.50;;;6.03;;
42194;SDS011;27863;49.440;11.102;2023-06-10T04:07:09;7.50;;;6.43;;
42194;SDS011;27863;49.440;11.102;2023-06-10T04:10:10;7.20;;;6.60;;
42194;SDS011;27863;49.440;11.102;2023-06-10T04:13:11;7.40;;;6.78;;
42194;SDS011;27863;49.440;11.102;2023-06-10T04:16:19;6.22;;;5.72;;
42194;SDS011;27863;49.440;11.102;2023-06-10T04:19:22;8.02;;;7.32;;
42194;SDS011;27863;49.440;11.102;2023-06-10T04:22:25;7.20;;;6.63;;
42194;SDS011;27863;49.440;11.102;2023-06-10T04:25:26;6.85;;;6.28;;
42194;SDS011;27863;49.440;11.102;2023-06-10T04:28:27;6.65;;;6.15;;
42194;SDS011;27863;49.440;11.102;2023-06-10T04:31:29;7.05;;;6.38;;
42194;SDS011;27863;49.440;11.102;2023-06-10T04:34:31;6.75;;;6.25;;
42194;SDS011;27863;49.440;11.102;2023-06-10T04:37:31;6.32;;;5.82;;
42194;SDS011;27863;49.440;11.102;2023-06-10T04:40:32;6.72;;;6.18;;
42194;SDS011;27863;49.440;11.102;2023-06-10T04:43:33;6.68;;;6.25;;
42194;SDS011;27863;49.440;11.102;2023-06-10T04:46:35;7.72;;;6.90;;
42194;SDS011;27863;49.440;11.102;2023-06-10T04:49:35;7.47;;;6.88;;
42194;SDS011;27863;49.440;11.102;2023-06-10T04:52:36;7.97;;;7.38;;
42194;SDS011;27863;49.440;11.102;2023-06-10T04:55:37;8.38;;;7.57;;
42194;SDS011;27863;49.440;11.102;2023-06-10T04:58:37;7.80;;;7.13;;
42194;SDS011;27863;49.440;11.102;2023-06-10T05:01:38;7.20;;;6.65;;
42194;SDS011;27863;49.440;11.102;2023-06-10T05:04:38;8.52;;;7.35;;
42194;SDS011;27863;49.440;11.102;2023-06-10T05:07:39;8.88;;;7.10;;
42194;SDS011;27863;49.440;11.102;2023-06-10T05:10:39;6.93;;;6.40;;
42194;SDS011;27863;49.440;11.102;2023-06-10T05:13:41;6.95;;;6.40;;
42194;SDS011;27863;49.440;11.102;2023-06-10T05:16:42;6.53;;;5.93;;
42194;SDS011;27863;49.440;11.102;2023-06-10T05:19:43;6.22;;;5.80;;
42194;SDS011;27863;49.440;11.102;2023-06-10T05:22:44;5.22;;;4.85;;
42194;SDS011;27863;49.440;11.102;2023-06-10T05:25:44;5.72;;;5.30;;
42194;SDS011;27863;49.440;11.102;2023-06-10T05:28:45;5.53;;;5.13;;
42194;SDS011;27863;49.440;11.102;2023-06-10T05:31:45;6.03;;;5.55;;
42194;SDS011;27863;49.440;11.102;2023-06-10T05:34:46;4.32;;;4.03;;
42194;SDS011;27863;49.440;11.102;2023-06-10T05:37:46;5.45;;;5.05;;
42194;SDS011;27863;49.440;11.102;2023-06-10T05:40:47;5.63;;;5.22;;
42194;SDS011;27863;49.440;11.102;2023-06-10T05:43:47;5.30;;;4.90;;
42194;SDS011;27863;49.440;11.102;2023-06-10T05:46:48;6.47;;;5.97;;
42194;SDS011;27863;49.440;11.102;2023-06-10T05:49:48;5.38;;;5.05;;
42194;SDS011;27863;49.440;11.102;2023-06-10T05:52:50;5.20;;;4.80;;
42194;SDS011;27863;49.440;11.102;2023-06-10T05:55:52;5.22;;;4.93;;
42194;SDS011;27863;49.440;11.102;2023-06-10T05:58:57;5.25;;;4.95;;
42194;SDS011;27863;49.440;11.102;2023-06-10T06:01:58;5.40;;;5.10;;
42194;SDS011;27863;49.440;11.102;2023-06-10T06:04:58;5.18;;;4.88;;
42194;SDS011;27863;49.440;11.102;2023-06-10T06:07:59;6.65;;;4.05;;
42194;SDS011;27863;49.440;11.102;2023-06-10T06:10:59;5.05;;;4.57;;
42194;SDS011;27863;49.440;11.102;2023-06-10T06:14:00;4.10;;;3.85;;
42194;SDS011;27863;49.440;11.102;2023-06-10T06:17:00;5.30;;;4.85;;
42194;SDS011;27863;49.440;11.102;2023-06-10T06:20:01;4.20;;;3.95;;
42194;SDS011;27863;49.440;11.102;2023-06-10T06:23:03;5.10;;;4.80;;
42194;SDS011;27863;49.440;11.102;2023-06-10T06:26:05;3.72;;;3.42;;
42194;SDS011;27863;49.440;11.102;2023-06-10T06:29:05;4.88;;;4.47;;
42194;SDS011;27863;49.440;11.102;2023-06-10T06:32:06;4.53;;;4.10;;
42194;SDS011;27863;49.440;11.102;2023-06-10T06:35:07;4.47;;;4.10;;
42194;SDS011;27863;49.440;11.102;2023-06-10T06:38:08;11.35;;;4.93;;
42194;SDS011;27863;49.440;11.102;2023-06-10T06:41:09;4.38;;;3.97;;
42194;SDS011;27863;49.440;11.102;2023-06-10T06:44:10;5.53;;;5.13;;
42194;SDS011;27863;49.440;11.102;2023-06-10T06:47:12;4.60;;;4.40;;
42194;SDS011;27863;49.440;11.102;2023-06-10T06:50:13;4.57;;;4.25;;
42194;SDS011;27863;49.440;11.102;2023-06-10T06:53:14;4.72;;;4.43;;
42194;SDS011;27863;49.440;11.102;2023-06-10T06:56:14;3.97;;;3.78;;
42194;SDS011;27863;49.440;11.102;2023-06-10T06:59:15;4.47;;;4.18;;
42194;SDS011;27863;49.440;11.102;2023-06-10T07:02:16;3.97;;;3.67;;
42194;SDS011;27863;49.440;11.102;2023-06-10T07:05:18;4.28;;;3.97;;
42194;SDS011;27863;49.440;11.102;2023-06-10T07:08:20;4.03;;;3.72;;
42194;SDS011;27863;49.440;11.102;2023-06-10T07:11:20;3.72;;;3.53;;
42194;SDS011;27863;49.440;11.102;2023-06-10T07:14:22;4.32;;;3.95;;
42194;SDS011;27863;49.440;11.102;2023-06-10T07:17:22;3.95;;;3.65;;
42194;SDS011;27863;49.440;11.102;2023-06-10T07:20:23;3.92;;;3.72;;
42194;SDS011;27863;49.440;11.102;2023-06-10T07:23:23;3.88;;;3.67;;
42194;SDS011;27863;49.440;11.102;2023-06-10T07:26:24;4.72;;;4.43;;
42194;SDS011;27863;49.440;11.102;2023-06-10T07:29:25;3.97;;;3.67;;
42194;SDS011;27863;49.440;11.102;2023-06-10T07:32:26;4.82;;;3.80;;
42194;SDS011;27863;49.440;11.102;2023-06-10T07:35:27;4.25;;;4.05;;
42194;SDS011;27863;49.440;11.102;2023-06-10T07:38:30;4.43;;;4.03;;
42194;SDS011;27863;49.440;11.102;2023-06-10T07:41:30;4.38;;;4.05;;
42194;SDS011;27863;49.440;11.102;2023-06-10T07:44:31;4.65;;;4.35;;
42194;SDS011;27863;49.440;11.102;2023-06-10T07:47:32;4.30;;;3.95;;
42194;SDS011;27863;49.440;11.102;2023-06-10T07:50:35;4.10;;;3.80;;
42194;SDS011;27863;49.440;11.102;2023-06-10T07:53:36;3.42;;;3.22;;
42194;SDS011;27863;49.440;11.102;2023-06-10T07:56:37;3.78;;;3.47;;
42194;SDS011;27863;49.440;11.102;2023-06-10T07:59:37;3.25;;;2.95;;
42194;SDS011;27863;49.440;11.102;2023-06-10T08:02:38;4.10;;;3.80;;
42194;SDS011;27863;49.440;11.102;2023-06-10T08:05:39;4.10;;;3.42;;
42194;SDS011;27863;49.440;11.102;2023-06-10T08:08:41;3.22;;;3.03;;
42194;SDS011;27863;49.440;11.102;2023-06-10T08:11:44;2.83;;;2.72;;
42194;SDS011;27863;49.440;11.102;2023-06-10T08:14:44;13.05;;;3.45;;
42194;SDS011;27863;49.440;11.102;2023-06-10T08:17:45;3.20;;;3.00;;
42194;SDS011;27863;49.440;11.102;2023-06-10T08:20:45;3.42;;;3.13;;
42194;SDS011;27863;49.440;11.102;2023-06-10T08:23:46;3.25;;;3.05;;
42194;SDS011;27863;49.440;11.102;2023-06-10T08:26:46;2.55;;;2.45;;
42194;SDS011;27863;49.440;11.102;2023-06-10T08:29:47;3.67;;;3.47;;
42194;SDS011;27863;49.440;11.102;2023-06-10T08:32:47;4.63;;;2.58;;
42194;SDS011;27863;49.440;11.102;2023-06-10T08:35:48;3.20;;;2.92;;
42194;SDS011;27863;49.440;11.102;2023-06-10T08:38:48;2.35;;;2.25;;
42194;SDS011;27863;49.440;11.102;2023-06-10T08:45:12;1.88;;;1.70;;
42194;SDS011;27863;49.440;11.102;2023-06-10T08:48:19;2.35;;;2.15;;
42194;SDS011;27863;49.440;11.102;2023-06-10T08:51:20;2.10;;;2.00;;
42194;SDS011;27863;49.440;11.102;2023-06-10T08:54:25;2.42;;;2.22;;
42194;SDS011;27863;49.440;11.102;2023-06-10T08:57:27;2.30;;;2.20;;
42194;SDS011;27863;49.440;11.102;2023-06-10T09:00:30;2.45;;;2.28;;
42194;SDS011;27863;49.440;11.102;2023-06-10T09:03:31;2.28;;;1.80;;
42194;SDS011;27863;49.440;11.102;2023-06-10T09:06:33;2.42;;;2.00;;
42194;SDS011;27863;49.440;11.102;2023-06-10T09:09:35;3.03;;;2.83;;
42194;SDS011;27863;49.440;11.102;2023-06-10T09:12:36;2.72;;;2.53;;
42194;SDS011;27863;49.440;11.102;2023-06-10T09:15:38;2.92;;;2.72;;
42194;SDS011;27863;49.440;11.102;2023-06-10T09:18:40;3.10;;;2.90;;
42194;SDS011;27863;49.440;11.102;2023-06-10T09:21:41;2.97;;;2.78;;
42194;SDS011;27863;49.440;11.102;2023-06-10T09:24:41;2.95;;;2.63;;
42194;SDS011;27863;49.440;11.102;2023-06-10T09:30:49;2.92;;;2.83;;
42194;SDS011;27863;49.440;11.102;2023-06-10T09:33:49;3.20;;;3.00;;
42194;SDS011;27863;49.440;11.102;2023-06-10T09:36:50;3.50;;;3.30;;
42194;SDS011;27863;49.440;11.102;2023-06-10T09:40:03;3.30;;;3.10;;
42194;SDS011;27863;49.440;11.102;2023-06-10T09:43:05;3.75;;;3.55;;
42194;SDS011;27863;49.440;11.102;2023-06-10T09:46:05;4.07;;;3.78;;
42194;SDS011;27863;49.440;11.102;2023-06-10T09:49:06;3.78;;;3.58;;
42194;SDS011;27863;49.440;11.102;2023-06-10T09:52:07;4.25;;;3.95;;
42194;SDS011;27863;49.440;11.102;2023-06-10T09:55:08;4.20;;;3.90;;
42194;SDS011;27863;49.440;11.102;2023-06-10T09:58:10;3.50;;;3.30;;
42194;SDS011;27863;49.440;11.102;2023-06-10T10:01:11;4.07;;;3.78;;
42194;SDS011;27863;49.440;11.102;2023-06-10T10:04:12;3.33;;;3.08;;
42194;SDS011;27863;49.440;11.102;2023-06-10T10:07:13;3.72;;;3.53;;
42194;SDS011;27863;49.440;11.102;2023-06-10T10:10:14;4.13;;;3.83;;
42194;SDS011;27863;49.440;11.102;2023-06-10T10:13:16;3.97;;;3.67;;
42194;SDS011;27863;49.440;11.102;2023-06-10T10:16:19;3.83;;;3.63;;
42194;SDS011;27863;49.440;11.102;2023-06-10T10:19:28;3.67;;;3.47;;
42194;SDS011;27863;49.440;11.102;2023-06-10T10:22:33;3.83;;;3.53;;
42194;SDS011;27863;49.440;11.102;2023-06-10T10:25:40;4.15;;;3.83;;
42194;SDS011;27863;49.440;11.102;2023-06-10T10:28:45;3.80;;;3.50;;
42194;SDS011;27863;49.440;11.102;2023-06-10T10:32:07;4.40;;;4.07;;
42194;SDS011;27863;49.440;11.102;2023-06-10T10:35:11;3.90;;;3.70;;
42194;SDS011;27863;49.440;11.102;2023-06-10T10:38:13;3.97;;;3.67;;
42194;SDS011;27863;49.440;11.102;2023-06-10T10:41:14;4.03;;;3.67;;
42194;SDS011;27863;49.440;11.102;2023-06-10T10:44:15;4.00;;;3.58;;
42194;SDS011;27863;49.440;11.102;2023-06-10T10:47:16;3.60;;;3.13;;
42194;SDS011;27863;49.440;11.102;2023-06-10T10:50:23;3.45;;;3.15;;
42194;SDS011;27863;49.440;11.102;2023-06-10T10:53:24;3.65;;;3.40;;
42194;SDS011;27863;49.440;11.102;2023-06-10T10:56:28;4.22;;;3.92;;
42194;SDS011;27863;49.440;11.102;2023-06-10T10:59:43;4.03;;;3.83;;
42194;SDS011;27863;49.440;11.102;2023-06-10T11:02:44;6.80;;;4.60;;
42194;SDS011;27863;49.440;11.102;2023-06-10T11:05:46;3.72;;;3.53;;
42194;SDS011;27863;49.440;11.102;2023-06-10T11:08:49;4.53;;;4.10;;
42194;SDS011;27863;49.440;11.102;2023-06-10T11:11:51;4.35;;;4.05;;
42194;SDS011;27863;49.440;11.102;2023-06-10T11:14:55;4.03;;;3.72;;
42194;SDS011;27863;49.440;11.102;2023-06-10T11:21:09;4.57;;;4.18;;
42194;SDS011;27863;49.440;11.102;2023-06-10T11:24:13;3.80;;;3.60;;
42194;SDS011;27863;49.440;11.102;2023-06-10T11:27:14;4.28;;;3.83;;
42194;SDS011;27863;49.440;11.102;2023-06-10T11:30:27;3.78;;;3.47;;
42194;SDS011;27863;49.440;11.102;2023-06-10T11:33:36;2.90;;;2.70;;
42194;SDS011;27863;49.440;11.102;2023-06-10T11:36:41;4.97;;;2.63;;
42194;SDS011;27863;49.440;11.102;2023-06-10T11:39:45;3.00;;;2.80;;
42194;SDS011;27863;49.440;11.102;2023-06-10T11:42:46;3.45;;;3.25;;
42194;SDS011;27863;49.440;11.102;2023-06-10T11:45:47;3.28;;;3.08;;
42194;SDS011;27863;49.440;11.102;2023-06-10T11:48:48;3.45;;;3.15;;
42194;SDS011;27863;49.440;11.102;2023-06-10T11:51:50;3.38;;;3.05;;
42194;SDS011;27863;49.440;11.102;2023-06-10T11:54:55;3.80;;;3.50;;
42194;SDS011;27863;49.440;11.102;2023-06-10T11:57:55;3.70;;;3.40;;
42194;SDS011;27863;49.440;11.102;2023-06-10T12:00:57;3.78;;;3.47;;
42194;SDS011;27863;49.440;11.102;2023-06-10T12:04:02;6.93;;;3.35;;
42194;SDS011;27863;49.440;11.102;2023-06-10T12:07:04;3.30;;;3.10;;
42194;SDS011;27863;49.440;11.102;2023-06-10T12:10:06;2.85;;;2.70;;
42194;SDS011;27863;49.440;11.102;2023-06-10T12:13:07;3.50;;;3.30;;
42194;SDS011;27863;49.440;11.102;2023-06-10T12:16:09;2.72;;;2.53;;
42194;SDS011;27863;49.440;11.102;2023-06-10T12:19:10;3.72;;;3.53;;
42194;SDS011;27863;49.440;11.102;2023-06-10T12:22:11;3.47;;;3.17;;
42194;SDS011;27863;49.440;11.102;2023-06-10T12:25:12;3.50;;;3.30;;
42194;SDS011;27863;49.440;11.102;2023-06-10T12:28:13;3.72;;;3.42;;
42194;SDS011;27863;49.440;11.102;2023-06-10T12:31:15;3.80;;;3.60;;
42194;SDS011;27863;49.440;11.102;2023-06-10T12:34:16;3.13;;;2.92;;
42194;SDS011;27863;49.440;11.102;2023-06-10T12:37:17;2.78;;;2.58;;
42194;SDS011;27863;49.440;11.102;2023-06-10T12:40:17;3.10;;;2.90;;
42194;SDS011;27863;49.440;11.102;2023-06-10T12:43:21;2.65;;;2.53;;
42194;SDS011;27863;49.440;11.102;2023-06-10T12:46:22;2.65;;;2.45;;
42194;SDS011;27863;49.440;11.102;2023-06-10T12:49:23;3.25;;;2.97;;
42194;SDS011;27863;49.440;11.102;2023-06-10T12:52:24;2.97;;;2.67;;
42194;SDS011;27863;49.440;11.102;2023-06-10T12:55:25;3.35;;;3.15;;
42194;SDS011;27863;49.440;11.102;2023-06-10T12:58:25;2.88;;;2.70;;
42194;SDS011;27863;49.440;11.102;2023-06-10T13:01:26;3.05;;;2.85;;
42194;SDS011;27863;49.440;11.102;2023-06-10T13:04:27;3.35;;;3.15;;
42194;SDS011;27863;49.440;11.102;2023-06-10T13:07:27;2.70;;;2.60;;
42194;SDS011;27863;49.440;11.102;2023-06-10T13:10:30;3.42;;;3.13;;
42194;SDS011;27863;49.440;11.102;2023-06-10T13:13:31;3.00;;;2.80;;
42194;SDS011;27863;49.440;11.102;2023-06-10T13:16:32;3.38;;;3.17;;
42194;SDS011;27863;49.440;11.102;2023-06-10T13:19:32;2.67;;;2.47;;
42194;SDS011;27863;49.440;11.102;2023-06-10T13:22:33;3.10;;;2.90;;
42194;SDS011;27863;49.440;11.102;2023-06-10T13:25:35;2.60;;;2.40;;
42194;SDS011;27863;49.440;11.102;2023-06-10T13:28:36;2.90;;;2.70;;
42194;SDS011;27863;49.440;11.102;2023-06-10T13:31:36;2.95;;;2.75;;
42194;SDS011;27863;49.440;11.102;2023-06-10T13:34:37;2.72;;;2.53;;
42194;SDS011;27863;49.440;11.102;2023-06-10T13:37:37;2.33;;;2.13;;
42194;SDS011;27863;49.440;11.102;2023-06-10T13:40:38;2.47;;;2.28;;
42194;SDS011;27863;49.440;11.102;2023-06-10T13:43:38;2.35;;;2.17;;
42194;SDS011;27863;49.440;11.102;2023-06-10T13:46:39;1.70;;;1.60;;
42194;SDS011;27863;49.440;11.102;2023-06-10T13:49:40;2.03;;;1.92;;
42194;SDS011;27863;49.440;11.102;2023-06-10T13:52:41;1.80;;;1.70;;
42194;SDS011;27863;49.440;11.102;2023-06-10T13:55:41;1.98;;;1.88;;
42194;SDS011;27863;49.440;11.102;2023-06-10T13:58:42;2.30;;;2.10;;
42194;SDS011;27863;49.440;11.102;2023-06-10T14:01:43;2.10;;;2.00;;
42194;SDS011;27863;49.440;11.102;2023-06-10T14:04:43;2.42;;;2.22;;
42194;SDS011;27863;49.440;11.102;2023-06-10T14:07:44;2.42;;;2.28;;
42194;SDS011;27863;49.440;11.102;2023-06-10T14:10:44;2.60;;;2.25;;
42194;SDS011;27863;49.440;11.102;2023-06-10T14:13:45;3.80;;;2.35;;
42194;SDS011;27863;49.440;11.102;2023-06-10T14:16:45;1.73;;;1.63;;
42194;SDS011;27863;49.440;11.102;2023-06-10T14:19:49;1.95;;;1.70;;
42194;SDS011;27863;49.440;11.102;2023-06-10T14:22:49;2.22;;;1.80;;
42194;SDS011;27863;49.440;11.102;2023-06-10T14:25:49;2.00;;;1.90;;
42194;SDS011;27863;49.440;11.102;2023-06-10T14:28:50;1.90;;;1.80;;
42194;SDS011;27863;49.440;11.102;2023-06-10T14:31:50;1.92;;;1.83;;
42194;SDS011;27863;49.440;11.102;2023-06-10T14:34:51;1.90;;;1.73;;
42194;SDS011;27863;49.440;11.102;2023-06-10T14:37:51;1.85;;;1.75;;
42194;SDS011;27863;49.440;11.102;2023-06-10T14:40:52;1.90;;;1.80;;
42194;SDS011;27863;49.440;11.102;2023-06-10T14:43:53;1.83;;;1.73;;
42194;SDS011;27863;49.440;11.102;2023-06-10T14:46:53;1.75;;;1.65;;
42194;SDS011;27863;49.440;11.102;2023-06-10T14:49:54;1.90;;;1.80;;
42194;SDS011;27863;49.440;11.102;2023-06-10T14:52:55;1.75;;;1.65;;
42194;SDS011;27863;49.440;11.102;2023-06-10T14:55:55;2.80;;;2.58;;
42194;SDS011;27863;49.440;11.102;2023-06-10T14:58:56;3.58;;;1.75;;
42194;SDS011;27863;49.440;11.102;2023-06-10T15:01:57;2.10;;;2.00;;
42194;SDS011;27863;49.440;11.102;2023-06-10T15:05:00;2.40;;;2.20;;
42194;SDS011;27863;49.440;11.102;2023-06-10T15:08:00;2.40;;;2.25;;
42194;SDS011;27863;49.440;11.102;2023-06-10T15:11:01;2.50;;;2.35;;
42194;SDS011;27863;49.440;11.102;2023-06-10T15:14:02;2.50;;;2.30;;
42194;SDS011;27863;49.440;11.102;2023-06-10T15:17:02;2.40;;;2.20;;
42194;SDS011;27863;49.440;11.102;2023-06-10T15:20:04;2.75;;;2.55;;
42194;SDS011;27863;49.440;11.102;2023-06-10T15:23:05;3.40;;;3.10;;
42194;SDS011;27863;49.440;11.102;2023-06-10T15:26:08;5.78;;;2.90;;
42194;SDS011;27863;49.440;11.102;2023-06-10T15:29:08;3.33;;;2.85;;
42194;SDS011;27863;49.440;11.102;2023-06-10T15:32:09;3.00;;;2.80;;
42194;SDS011;27863;49.440;11.102;2023-06-10T15:35:10;3.35;;;3.15;;
42194;SDS011;27863;49.440;11.102;2023-06-10T15:38:11;2.60;;;2.40;;
42194;SDS011;27863;49.440;11.102;2023-06-10T15:41:11;3.63;;;3.33;;
42194;SDS011;27863;49.440;11.102;2023-06-10T15:44:12;3.15;;;2.95;;
42194;SDS011;27863;49.440;11.102;2023-06-10T15:47:13;3.72;;;3.50;;
42194;SDS011;27863;49.440;11.102;2023-06-10T15:50:13;3.58;;;3.28;;
42194;SDS011;27863;49.440;11.102;2023-06-10T15:53:15;3.13;;;2.92;;
42194;SDS011;27863;49.440;11.102;2023-06-10T15:56:19;3.83;;;3.40;;
42194;SDS011;27863;49.440;11.102;2023-06-10T15:59:19;3.97;;;3.67;;
42194;SDS011;27863;49.440;11.102;2023-06-10T16:02:20;3.35;;;3.15;;
42194;SDS011;27863;49.440;11.102;2023-06-10T16:05:21;3.65;;;3.45;;
42194;SDS011;27863;49.440;11.102;2023-06-10T16:08:21;3.50;;;3.30;;
42194;SDS011;27863;49.440;11.102;2023-06-10T16:11:22;4.15;;;3.75;;
42194;SDS011;27863;49.440;11.102;2023-06-10T16:14:23;4.07;;;3.72;;
42194;SDS011;27863;49.440;11.102;2023-06-10T16:17:23;5.13;;;4.72;;
42194;SDS011;27863;49.440;11.102;2023-06-10T16:20:24;5.22;;;4.82;;
42194;SDS011;27863;49.440;11.102;2023-06-10T16:23:24;5.78;;;5.38;;
42194;SDS011;27863;49.440;11.102;2023-06-10T16:26:28;5.45;;;4.75;;
42194;SDS011;27863;49.440;11.102;2023-06-10T16:29:29;5.45;;;5.05;;
42194;SDS011;27863;49.440;11.102;2023-06-10T16:32:29;5.18;;;4.78;;
42194;SDS011;27863;49.440;11.102;2023-06-10T16:35:30;5.18;;;4.78;;
42194;SDS011;27863;49.440;11.102;2023-06-10T16:38:31;5.57;;;5.28;;
42194;SDS011;27863;49.440;11.102;2023-06-10T16:41:31;5.75;;;5.38;;
42194;SDS011;27863;49.440;11.102;2023-06-10T16:44:32;6.10;;;5.70;;
42194;SDS011;27863;49.440;11.102;2023-06-10T16:47:32;5.70;;;5.22;;
42194;SDS011;27863;49.440;11.102;2023-06-10T16:50:34;5.40;;;5.10;;
42194;SDS011;27863;49.440;11.102;2023-06-10T16:53:34;5.82;;;5.43;;
42194;SDS011;27863;49.440;11.102;2023-06-10T16:56:35;4.93;;;4.63;;
42194;SDS011;27863;49.440;11.102;2023-06-10T16:59:35;6.28;;;5.75;;
42194;SDS011;27863;49.440;11.102;2023-06-10T17:02:36;5.07;;;4.68;;
42194;SDS011;27863;49.440;11.102;2023-06-10T17:05:36;4.47;;;4.18;;
42194;SDS011;27863;49.440;11.102;2023-06-10T17:08:37;3.88;;;3.67;;
42194;SDS011;27863;49.440;11.102;2023-06-10T17:11:40;3.13;;;2.92;;
42194;SDS011;27863;49.440;11.102;2023-06-10T17:14:44;3.65;;;3.45;;
42194;SDS011;27863;49.440;11.102;2023-06-10T17:17:44;4.55;;;3.90;;
42194;SDS011;27863;49.440;11.102;2023-06-10T17:20:45;3.88;;;3.58;;
42194;SDS011;27863;49.440;11.102;2023-06-10T17:23:45;4.30;;;4.00;;
42194;SDS011;27863;49.440;11.102;2023-06-10T17:26:46;4.93;;;4.32;;
42194;SDS011;27863;49.440;11.102;2023-06-10T17:29:47;4.63;;;4.22;;
42194;SDS011;27863;49.440;11.102;2023-06-10T17:32:48;4.65;;;4.35;;
42194;SDS011;27863;49.440;11.102;2023-06-10T17:35:49;5.07;;;4.78;;
42194;SDS011;27863;49.440;11.102;2023-06-10T17:38:51;5.60;;;5.20;;
42194;SDS011;27863;49.440;11.102;2023-06-10T17:41:52;5.10;;;4.60;;
42194;SDS011;27863;49.440;11.102;2023-06-10T17:44:52;4.70;;;4.40;;
42194;SDS011;27863;49.440;11.102;2023-06-10T17:47:53;4.97;;;4.47;;
42194;SDS011;27863;49.440;11.102;2023-06-10T17:50:53;4.97;;;4.68;;
42194;SDS011;27863;49.440;11.102;2023-06-10T17:53:54;5.50;;;5.10;;
42194;SDS011;27863;49.440;11.102;2023-06-10T17:56:54;5.05;;;4.65;;
42194;SDS011;27863;49.440;11.102;2023-06-10T17:59:55;6.35;;;5.03;;
42194;SDS011;27863;49.440;11.102;2023-06-10T18:02:55;5.85;;;5.35;;
42194;SDS011;27863;49.440;11.102;2023-06-10T18:05:56;5.45;;;5.05;;
42194;SDS011;27863;49.440;11.102;2023-06-10T18:08:57;4.60;;;4.30;;
42194;SDS011;27863;49.440;11.102;2023-06-10T18:11:57;4.68;;;4.38;;